createdAt,value
2024-04-17T00:02:25.762Z,10.80
2024-04-17T00:04:53.341Z,10.80
2024-04-17T00:07:21.215Z,10.80
2024-04-17T00:09:48.779Z,10.80
2024-04-17T00:12:16.327Z,10.70
2024-04-17T00:14:44.257Z,10.70
2024-04-17T00:17:11.979Z,10.70
2024-04-17T00:19:39.764Z,10.70
2024-04-17T00:22:07.407Z,10.70
2024-04-17T00:24:34.967Z,10.60
2024-04-17T00:27:02.528Z,10.60
2024-04-17T00:29:30.055Z,10.60
2024-04-17T00:31:57.706Z,10.60
2024-04-17T00:34:25.481Z,10.50
2024-04-17T00:36:52.998Z,10.50
2024-04-17T00:39:20.655Z,10.50
2024-04-17T00:41:48.160Z,10.50
2024-04-17T00:44:16.222Z,10.40
2024-04-17T00:46:45.116Z,10.40
2024-04-17T00:49:13.515Z,10.40
2024-04-17T00:51:42.202Z,10.40
2024-04-17T00:54:10.801Z,10.30
2024-04-17T00:56:38.657Z,10.30
2024-04-17T00:59:06.487Z,10.30
2024-04-17T01:01:34.091Z,10.20
2024-04-17T01:04:01.772Z,10.20
2024-04-17T01:06:29.736Z,10.20
2024-04-17T01:08:58.088Z,10.10
2024-04-17T01:11:25.673Z,10.10
2024-04-17T01:13:53.331Z,10.10
2024-04-17T01:16:21.833Z,10.10
2024-04-17T01:18:49.885Z,10.10
2024-04-17T01:21:18.580Z,10.00
2024-04-17T01:23:46.140Z,10.00
2024-04-17T01:26:13.705Z,10.00
2024-04-17T01:28:41.279Z,9.90
2024-04-17T01:31:08.884Z,9.90
2024-04-17T01:33:36.598Z,9.90
2024-04-17T01:36:04.231Z,9.80
2024-04-17T01:38:31.729Z,9.80
2024-04-17T01:40:59.633Z,9.70
2024-04-17T01:43:28.208Z,9.70
2024-04-17T01:45:55.785Z,9.70
2024-04-17T01:48:24.138Z,9.70
2024-04-17T01:50:52.201Z,9.60
2024-04-17T01:53:19.762Z,9.60
2024-04-17T01:55:47.410Z,9.50
2024-04-17T01:58:14.933Z,9.50
2024-04-17T02:00:42.580Z,9.50
2024-04-17T02:03:10.986Z,9.40
2024-04-17T02:05:38.584Z,9.40
2024-04-17T02:08:06.861Z,9.30
2024-04-17T02:10:34.406Z,9.30
2024-04-17T02:13:02.247Z,9.30
2024-04-17T02:15:29.786Z,9.20
2024-04-17T02:17:57.388Z,9.20
2024-04-17T02:20:25.047Z,9.10
2024-04-17T02:22:52.796Z,9.10
2024-04-17T02:25:20.409Z,9.00
2024-04-17T02:27:48.017Z,9.00
2024-04-17T02:30:15.565Z,9.00
2024-04-17T02:32:43.294Z,8.90
2024-04-17T02:35:13.401Z,8.90
2024-04-17T02:37:41.082Z,8.80
2024-04-17T02:40:09.915Z,8.80
2024-04-17T02:42:37.480Z,8.80
2024-04-17T02:45:05.321Z,8.80
2024-04-17T02:47:33.890Z,8.70
2024-04-17T02:50:01.592Z,8.70
2024-04-17T02:52:29.214Z,8.60
2024-04-17T02:54:57.225Z,8.60
2024-04-17T02:57:24.756Z,8.60
2024-04-17T02:59:52.362Z,8.60
2024-04-17T03:02:19.920Z,8.50
2024-04-17T03:04:47.554Z,8.50
2024-04-17T03:07:15.151Z,8.50
2024-04-17T03:09:42.672Z,8.50
2024-04-17T03:12:10.342Z,8.40
2024-04-17T03:14:37.861Z,8.40
2024-04-17T03:17:05.476Z,8.40
2024-04-17T03:19:33.061Z,8.40
2024-04-17T03:22:00.653Z,8.30
2024-04-17T03:24:28.328Z,8.30
2024-04-17T03:26:56.856Z,8.20
2024-04-17T03:29:24.517Z,8.20
2024-04-17T03:31:52.288Z,8.20
2024-04-17T03:34:19.831Z,8.20
2024-04-17T03:36:47.361Z,8.10
2024-04-17T03:39:14.904Z,8.10
2024-04-17T03:41:42.464Z,8.00
2024-04-17T03:44:09.993Z,8.00
2024-04-17T03:46:37.546Z,8.00
2024-04-17T03:49:05.248Z,8.00
2024-04-17T03:51:32.830Z,7.90
2024-04-17T03:54:00.642Z,7.90
2024-04-17T03:56:28.157Z,7.90
2024-04-17T03:58:55.794Z,7.90
2024-04-17T04:01:23.706Z,7.80
2024-04-17T04:03:51.620Z,7.80
2024-04-17T04:06:19.194Z,7.80
2024-04-17T04:08:46.681Z,7.70
2024-04-17T04:11:14.536Z,7.70
2024-04-17T04:13:42.208Z,7.60
2024-04-17T04:16:10.155Z,7.60
2024-04-17T04:18:37.739Z,7.60
2024-04-17T04:21:05.639Z,7.60
2024-04-17T04:23:33.410Z,7.60
2024-04-17T04:26:00.986Z,7.50
2024-04-17T04:28:28.574Z,7.50
2024-04-17T04:30:56.602Z,7.50
2024-04-17T04:33:24.155Z,7.50
2024-04-17T04:35:51.721Z,7.50
2024-04-17T04:38:19.584Z,7.50
2024-04-17T04:40:47.125Z,7.50
2024-04-17T04:43:14.724Z,7.40
2024-04-17T04:45:42.396Z,7.40
2024-04-17T04:48:11.708Z,7.40
2024-04-17T04:50:39.559Z,7.40
2024-04-17T04:53:07.245Z,7.50
2024-04-17T04:55:34.826Z,7.50
2024-04-17T04:58:02.755Z,7.40
2024-04-17T05:00:30.314Z,7.50
2024-04-17T05:02:57.889Z,7.50
2024-04-17T05:05:25.428Z,7.50
2024-04-17T05:07:53.385Z,7.60
2024-04-17T05:10:20.936Z,7.60
2024-04-17T05:12:48.536Z,7.60
2024-04-17T05:15:16.149Z,7.70
2024-04-17T05:17:43.783Z,7.70
2024-04-17T05:20:11.406Z,7.80
2024-04-17T05:22:39.100Z,7.80
2024-04-17T05:25:07.004Z,7.90
2024-04-17T05:27:34.745Z,7.90
2024-04-17T05:30:02.351Z,7.90
2024-04-17T05:32:30.003Z,8.00
2024-04-17T05:34:57.614Z,8.00
2024-04-17T05:37:25.216Z,8.00
2024-04-17T05:39:52.728Z,8.10
2024-04-17T05:42:20.292Z,8.10
2024-04-17T05:44:47.822Z,8.10
2024-04-17T05:47:15.439Z,8.10
2024-04-17T05:49:43.193Z,8.20
2024-04-17T05:52:11.763Z,8.20
2024-04-17T05:54:39.290Z,8.20
2024-04-17T05:57:09.558Z,8.20
2024-04-17T05:59:37.222Z,8.30
2024-04-17T06:02:05.264Z,8.30
2024-04-17T06:04:32.930Z,8.30
2024-04-17T06:07:00.530Z,8.30
2024-04-17T06:09:28.341Z,8.40
2024-04-17T06:11:55.879Z,8.40
2024-04-17T06:14:23.435Z,8.40
2024-04-17T06:16:51.093Z,8.40
2024-04-17T06:19:18.675Z,8.50
2024-04-17T06:21:46.447Z,8.50
2024-04-17T06:24:13.980Z,8.60
2024-04-17T06:26:41.498Z,8.60
2024-04-17T06:29:09.116Z,8.70
2024-04-17T06:31:36.731Z,8.70
2024-04-17T06:34:04.654Z,8.80
2024-04-17T06:36:32.199Z,8.90
2024-04-17T06:39:02.028Z,8.90
2024-04-17T06:41:39.055Z,9.00
2024-04-17T06:44:18.374Z,9.10
2024-04-17T06:46:45.965Z,9.30
2024-04-17T06:49:13.648Z,9.40
2024-04-17T06:51:41.241Z,9.50
2024-04-17T06:54:08.783Z,9.60
2024-04-17T06:56:37.003Z,9.70
2024-04-17T06:59:04.581Z,9.80
2024-04-17T07:01:32.331Z,9.90
2024-04-17T07:04:00.029Z,10.00
2024-04-17T07:06:27.693Z,10.10
2024-04-17T07:08:55.231Z,10.10
2024-04-17T07:11:22.839Z,10.10
2024-04-17T07:13:50.586Z,10.20
2024-04-17T07:16:19.389Z,10.30
2024-04-17T07:18:47.523Z,10.30
2024-04-17T07:21:15.191Z,10.40
2024-04-17T07:23:45.140Z,10.40
2024-04-17T07:26:14.068Z,10.40
2024-04-17T07:28:41.731Z,10.50
2024-04-17T07:31:10.567Z,10.50
2024-04-17T07:33:38.140Z,10.60
2024-04-17T07:36:06.074Z,10.60
2024-04-17T07:38:33.614Z,10.70
2024-04-17T07:41:02.853Z,10.80
2024-04-17T07:43:34.622Z,10.90
2024-04-17T07:46:03.255Z,11.00
2024-04-17T07:48:32.174Z,11.10
2024-04-17T07:50:59.762Z,11.20
2024-04-17T07:53:27.356Z,11.30
2024-04-17T07:55:55.062Z,11.40
2024-04-17T07:58:22.591Z,11.50
2024-04-17T08:00:50.185Z,11.60
2024-04-17T08:03:17.728Z,11.70
2024-04-17T08:05:45.271Z,11.80
2024-04-17T08:08:12.859Z,11.90
2024-04-17T08:10:40.951Z,12.00
2024-04-17T08:13:16.535Z,12.00
2024-04-17T08:15:55.113Z,12.10
2024-04-17T08:18:22.968Z,12.20
2024-04-17T08:20:57.715Z,12.20
2024-04-17T08:23:30.380Z,12.30
2024-04-17T08:26:00.358Z,12.30
2024-04-17T08:28:27.986Z,12.30
2024-04-17T08:30:55.538Z,12.30
2024-04-17T08:33:23.347Z,12.30
2024-04-17T08:35:51.056Z,12.30
2024-04-17T08:38:18.716Z,12.30
2024-04-17T08:40:46.869Z,12.20
2024-04-17T08:43:28.990Z,12.20
2024-04-17T08:45:57.958Z,12.10
2024-04-17T08:48:27.241Z,12.10
2024-04-17T08:50:57.571Z,12.10
2024-04-17T08:53:28.973Z,12.00
2024-04-17T08:55:57.251Z,12.00
2024-04-17T08:58:25.289Z,12.00
2024-04-17T09:00:53.868Z,12.00
2024-04-17T09:03:25.895Z,11.90
2024-04-17T09:05:57.378Z,11.90
2024-04-17T09:08:26.696Z,11.90
2024-04-17T09:10:56.942Z,11.90
2024-04-17T09:13:24.961Z,11.90
2024-04-17T09:15:52.646Z,11.90
2024-04-17T09:18:27.031Z,11.90
2024-04-17T09:20:56.932Z,11.90
2024-04-17T09:23:25.392Z,11.80
2024-04-17T09:25:53.033Z,11.80
2024-04-17T09:28:20.597Z,11.80
2024-04-17T09:30:50.886Z,11.80
2024-04-17T09:33:18.834Z,11.70
2024-04-17T09:35:46.544Z,11.70
2024-04-17T09:38:17.634Z,11.70
2024-04-17T09:40:49.125Z,11.70
2024-04-17T09:43:29.457Z,11.70
2024-04-17T09:46:04.135Z,11.70
2024-04-17T09:48:32.065Z,11.70
2024-04-17T09:51:04.509Z,11.70
2024-04-17T09:53:38.052Z,11.70
2024-04-17T09:56:08.020Z,11.70
2024-04-17T09:58:38.570Z,11.70
2024-04-17T10:01:08.726Z,11.70
2024-04-17T10:03:38.001Z,11.70
2024-04-17T10:06:06.867Z,11.70
2024-04-17T10:08:37.340Z,11.60
2024-04-17T10:11:06.290Z,11.70
2024-04-17T10:13:36.164Z,11.70
2024-04-17T10:16:05.330Z,11.80
2024-04-17T10:18:33.051Z,11.80
2024-04-17T10:21:00.659Z,11.90
2024-04-17T10:23:28.422Z,11.90
2024-04-17T10:26:00.195Z,12.00
2024-04-17T10:28:28.743Z,12.10
2024-04-17T10:30:57.613Z,12.10
2024-04-17T10:33:32.217Z,12.10
2024-04-17T10:36:04.016Z,12.10
2024-04-17T10:38:36.403Z,12.10
2024-04-17T10:41:06.978Z,12.20
2024-04-17T10:43:36.939Z,12.20
2024-04-17T10:46:10.349Z,12.20
2024-04-17T10:48:47.666Z,12.20
2024-04-17T10:51:16.323Z,12.30
2024-04-17T10:53:50.279Z,12.30
2024-04-17T10:56:18.858Z,12.40
2024-04-17T10:58:46.941Z,12.40
2024-04-17T11:01:14.954Z,12.40
2024-04-17T11:03:42.856Z,12.40
2024-04-17T11:06:12.634Z,12.40
2024-04-17T11:08:54.551Z,12.40
2024-04-17T11:11:27.759Z,12.40
2024-04-17T11:13:55.744Z,12.30
2024-04-17T11:16:23.451Z,12.30
2024-04-17T11:18:51.287Z,12.40
2024-04-17T11:21:19.067Z,12.40
2024-04-17T11:23:46.730Z,12.50
2024-04-17T11:26:15.441Z,12.50
2024-04-17T11:28:46.614Z,12.60
2024-04-17T11:31:16.724Z,12.70
2024-04-17T11:33:47.400Z,12.80
2024-04-17T11:36:16.749Z,12.80
2024-04-17T11:38:48.237Z,12.90
2024-04-17T11:41:17.349Z,12.90
2024-04-17T11:43:48.966Z,13.00
2024-04-17T11:46:18.977Z,13.00
2024-04-17T11:48:46.605Z,13.10
2024-04-17T11:51:14.367Z,13.20
2024-04-17T11:53:42.006Z,13.30
2024-04-17T11:56:10.018Z,13.40
2024-04-17T11:58:37.784Z,13.40
2024-04-17T12:01:06.119Z,13.50
2024-04-17T12:03:38.138Z,13.60
2024-04-17T12:06:08.706Z,13.70
2024-04-17T12:08:36.663Z,13.80
2024-04-17T12:11:04.383Z,13.90
2024-04-17T12:13:32.006Z,14.10
2024-04-17T12:15:59.634Z,14.20
2024-04-17T12:18:28.102Z,14.40
2024-04-17T12:20:55.630Z,14.50
2024-04-17T12:23:23.310Z,14.50
2024-04-17T12:26:09.802Z,14.60
2024-04-17T12:28:37.414Z,14.70
2024-04-17T12:31:05.220Z,14.80
2024-04-17T12:33:32.991Z,14.80
2024-04-17T12:36:00.781Z,14.90
2024-04-17T12:38:28.419Z,14.90
2024-04-17T12:40:56.125Z,15.00
2024-04-17T12:43:23.751Z,15.10
2024-04-17T12:45:51.354Z,15.20
2024-04-17T12:48:18.986Z,15.30
2024-04-17T12:50:49.672Z,15.30
2024-04-17T12:53:18.798Z,15.30
2024-04-17T12:55:56.474Z,15.20
2024-04-17T12:58:24.016Z,15.20
2024-04-17T13:00:54.833Z,15.20
2024-04-17T13:03:22.492Z,15.10
2024-04-17T13:05:50.773Z,15.10
2024-04-17T13:08:18.298Z,15.00
2024-04-17T13:10:45.857Z,15.00
2024-04-17T13:13:13.440Z,15.00
2024-04-17T13:15:41.083Z,14.90
2024-04-17T13:18:08.801Z,14.90
2024-04-17T13:20:36.362Z,14.90
2024-04-17T13:23:10.545Z,14.90
2024-04-17T13:25:43.959Z,14.80
2024-04-17T13:28:11.556Z,14.80
2024-04-17T13:30:39.125Z,14.80
2024-04-17T13:33:06.874Z,14.80
2024-04-17T13:35:34.464Z,14.90
2024-04-17T13:38:02.630Z,15.00
2024-04-17T13:40:32.170Z,15.10
2024-04-17T13:42:59.980Z,15.30
2024-04-17T13:45:32.169Z,15.30
2024-04-17T13:47:59.767Z,15.40
2024-04-17T13:50:27.534Z,15.50
2024-04-17T13:52:55.075Z,15.50
2024-04-17T13:55:22.643Z,15.40
2024-04-17T13:57:50.170Z,15.30
2024-04-17T14:00:17.808Z,15.20
2024-04-17T14:02:47.576Z,15.10
2024-04-17T14:05:15.218Z,15.10
2024-04-17T14:07:42.790Z,15.00
2024-04-17T14:10:11.091Z,15.00
2024-04-17T14:12:39.846Z,14.90
2024-04-17T14:15:08.258Z,14.90
2024-04-17T14:17:36.115Z,14.90
2024-04-17T14:20:05.236Z,14.80
2024-04-17T14:22:35.256Z,14.70
2024-04-17T14:25:02.759Z,14.70
2024-04-17T14:27:30.370Z,14.50
2024-04-17T14:29:57.895Z,14.40
2024-04-17T14:32:25.504Z,14.20
2024-04-17T14:34:55.129Z,14.10
2024-04-17T14:37:24.172Z,13.90
2024-04-17T14:39:51.892Z,13.80
2024-04-17T14:42:19.611Z,13.70
2024-04-17T14:44:47.420Z,13.60
2024-04-17T14:47:14.930Z,13.50
2024-04-17T14:49:42.454Z,13.40
2024-04-17T14:52:09.992Z,13.30
2024-04-17T14:54:37.750Z,13.30
2024-04-17T14:57:05.898Z,13.20
2024-04-17T14:59:33.494Z,13.10
2024-04-17T15:02:01.084Z,13.10
2024-04-17T15:04:28.691Z,13.00
2024-04-17T15:06:57.300Z,13.00
2024-04-17T15:09:25.171Z,12.90
2024-04-17T15:11:52.716Z,12.90
2024-04-17T15:14:20.263Z,12.80
2024-04-17T15:16:48.143Z,12.80
2024-04-17T15:19:16.636Z,12.80
2024-04-17T15:21:44.245Z,12.80
2024-04-17T15:24:17.280Z,12.80
2024-04-17T15:26:45.034Z,12.80
2024-04-17T15:29:12.785Z,12.80
2024-04-17T15:31:41.360Z,12.80
2024-04-17T15:34:09.204Z,12.90
2024-04-17T15:36:36.781Z,13.00
2024-04-17T15:39:04.636Z,13.10
2024-04-17T15:41:32.410Z,13.20
2024-04-17T15:44:00.568Z,13.30
2024-04-17T15:46:29.154Z,13.40
2024-04-17T15:49:00.205Z,13.60
2024-04-17T15:51:28.331Z,13.70
2024-04-17T15:53:55.990Z,13.70
2024-04-17T15:56:26.005Z,13.80
2024-04-17T15:58:54.116Z,13.80
2024-04-17T16:01:21.892Z,13.90
2024-04-17T16:03:56.075Z,13.90
2024-04-17T16:06:24.520Z,13.90
2024-04-17T16:08:53.578Z,13.90
2024-04-17T16:11:22.943Z,13.90
2024-04-17T16:13:51.558Z,13.90
2024-04-17T16:16:20.300Z,13.90
2024-04-17T16:18:48.091Z,13.90
2024-04-17T16:21:17.924Z,13.90
2024-04-17T16:23:46.395Z,13.80
2024-04-17T16:26:20.423Z,13.80
2024-04-17T16:28:52.864Z,13.80
2024-04-17T16:31:21.282Z,13.80
2024-04-17T16:33:50.550Z,13.70
2024-04-17T16:36:18.829Z,13.80
2024-04-17T16:38:47.713Z,13.80
2024-04-17T16:41:16.836Z,13.80
2024-04-17T16:43:55.607Z,13.70
2024-04-17T16:46:23.628Z,13.70
2024-04-17T16:48:55.943Z,13.70
2024-04-17T16:51:25.297Z,13.70
2024-04-17T16:53:53.256Z,13.70
2024-04-17T16:56:20.845Z,13.70
2024-04-17T16:58:48.374Z,13.60
2024-04-17T17:01:16.300Z,13.60
2024-04-17T17:03:45.363Z,13.50
2024-04-17T17:06:12.991Z,13.50
2024-04-17T17:08:40.557Z,13.50
2024-04-17T17:11:08.317Z,13.40
2024-04-17T17:13:36.261Z,13.40
2024-04-17T17:16:06.475Z,13.30
2024-04-17T17:18:34.606Z,13.20
2024-04-17T17:21:12.895Z,13.20
2024-04-17T17:23:40.624Z,13.10
2024-04-17T17:26:14.909Z,13.00
2024-04-17T17:28:43.475Z,12.90
2024-04-17T17:31:11.010Z,12.90
2024-04-17T17:33:39.188Z,12.80
2024-04-17T17:36:07.565Z,12.80
2024-04-17T17:38:38.942Z,12.70
2024-04-17T17:41:14.344Z,12.60
2024-04-17T17:43:43.647Z,12.50
2024-04-17T17:46:17.045Z,12.50
2024-04-17T17:48:48.194Z,12.40
2024-04-17T17:51:18.259Z,12.30
2024-04-17T17:53:46.286Z,12.30
2024-04-17T17:56:16.179Z,12.20
2024-04-17T17:58:53.724Z,12.10
2024-04-17T18:01:22.045Z,12.00
2024-04-17T18:03:51.744Z,12.00
2024-04-17T18:06:19.801Z,11.90
2024-04-17T18:08:47.572Z,11.90
2024-04-17T18:11:20.552Z,11.80
2024-04-17T18:13:49.439Z,11.80
2024-04-17T18:16:26.072Z,11.70
2024-04-17T18:19:02.363Z,11.70
2024-04-17T18:21:30.492Z,11.60
2024-04-17T18:23:58.350Z,11.60
2024-04-17T18:26:26.250Z,11.50
2024-04-17T18:28:55.424Z,11.50
2024-04-17T18:31:23.767Z,11.40
2024-04-17T18:33:53.451Z,11.40
2024-04-17T18:36:24.076Z,11.30
2024-04-17T18:38:52.790Z,11.30
2024-04-17T18:41:26.620Z,11.20
2024-04-17T18:44:01.084Z,11.10
2024-04-17T18:46:30.017Z,11.00
2024-04-17T18:49:02.233Z,11.00
2024-04-17T18:51:30.685Z,11.00
2024-04-17T18:53:58.352Z,10.90
2024-04-17T18:56:29.223Z,10.90
2024-04-17T18:58:57.200Z,10.80
2024-04-17T19:01:25.202Z,10.80
2024-04-17T19:03:53.325Z,10.70
2024-04-17T19:06:21.914Z,10.70
2024-04-17T19:08:50.621Z,10.60
2024-04-17T19:11:19.013Z,10.60
2024-04-17T19:13:47.158Z,10.60
2024-04-17T19:16:20.273Z,10.60
2024-04-17T19:18:50.732Z,10.50
2024-04-17T19:21:19.184Z,10.50
2024-04-17T19:23:48.127Z,10.50
2024-04-17T19:26:17.085Z,10.40
2024-04-17T19:28:45.439Z,10.40
2024-04-17T19:31:14.156Z,10.40
2024-04-17T19:33:51.558Z,10.40
2024-04-17T19:36:29.046Z,10.40
2024-04-17T19:39:02.118Z,10.30
2024-04-17T19:41:29.985Z,10.30
2024-04-17T19:44:05.295Z,10.30
2024-04-17T19:46:33.338Z,10.30
2024-04-17T19:49:01.841Z,10.30
2024-04-17T19:51:29.710Z,10.30
2024-04-17T19:53:57.352Z,10.30
2024-04-17T19:56:24.939Z,10.20
2024-04-17T19:58:54.528Z,10.20
2024-04-17T20:01:23.086Z,10.20
2024-04-17T20:03:51.448Z,10.20
2024-04-17T20:06:19.061Z,10.20
2024-04-17T20:08:46.593Z,10.20
2024-04-17T20:11:14.386Z,10.10
2024-04-17T20:13:42.094Z,10.10
2024-04-17T20:16:10.862Z,10.10
2024-04-17T20:18:39.527Z,10.10
2024-04-17T20:21:11.738Z,10.00
2024-04-17T20:23:42.222Z,10.00
2024-04-17T20:26:15.094Z,10.00
2024-04-17T20:28:52.427Z,10.00
2024-04-17T20:31:25.765Z,9.90
2024-04-17T20:33:54.348Z,9.90
2024-04-17T20:36:23.267Z,9.90
2024-04-17T20:38:51.638Z,9.80
2024-04-17T20:41:20.222Z,9.80
2024-04-17T20:43:47.894Z,9.80
2024-04-17T20:46:17.549Z,9.70
2024-04-17T20:48:50.071Z,9.70
2024-04-17T20:51:17.989Z,9.70
2024-04-17T20:53:46.166Z,9.70
2024-04-17T20:56:13.820Z,9.70
2024-04-17T20:58:41.401Z,9.70
2024-04-17T21:01:11.189Z,9.70
2024-04-17T21:03:39.586Z,9.60
2024-04-17T21:06:10.654Z,9.60
2024-04-17T21:08:40.213Z,9.60
2024-04-17T21:11:11.100Z,9.60
2024-04-17T21:13:40.257Z,9.60
2024-04-17T21:16:25.511Z,9.60
2024-04-17T21:18:59.003Z,9.60
2024-04-17T21:21:26.859Z,9.50
2024-04-17T21:23:59.336Z,9.50
2024-04-17T21:26:26.885Z,9.50
2024-04-17T21:28:54.433Z,9.50
2024-04-17T21:31:24.114Z,9.50
2024-04-17T21:33:52.302Z,9.50
2024-04-17T21:36:20.262Z,9.50
2024-04-17T21:38:47.868Z,9.50
2024-04-17T21:41:16.064Z,9.50
2024-04-17T21:43:43.811Z,9.50
2024-04-17T21:46:13.405Z,9.40
2024-04-17T21:48:43.947Z,9.40
2024-04-17T21:51:11.875Z,9.40
2024-04-17T21:53:39.558Z,9.40
2024-04-17T21:56:09.550Z,9.40
2024-04-17T21:58:37.315Z,9.40
2024-04-17T22:01:09.190Z,9.40
2024-04-17T22:03:40.686Z,9.40
2024-04-17T22:06:10.453Z,9.40
2024-04-17T22:08:39.300Z,9.40
2024-04-17T22:11:07.021Z,9.40
2024-04-17T22:13:35.137Z,9.30
2024-04-17T22:16:02.736Z,9.30
2024-04-17T22:18:30.349Z,9.30
2024-04-17T22:20:58.843Z,9.30
2024-04-17T22:23:26.359Z,9.30
2024-04-17T22:25:54.148Z,9.20
2024-04-17T22:28:21.669Z,9.20
2024-04-17T22:30:49.372Z,9.20
2024-04-17T22:33:17.086Z,9.10
2024-04-17T22:35:44.630Z,9.10
2024-04-17T22:38:12.138Z,9.10
2024-04-17T22:40:39.737Z,9.10
2024-04-17T22:43:07.231Z,9.10
2024-04-17T22:45:34.778Z,9.00
2024-04-17T22:48:02.411Z,9.00
2024-04-17T22:50:29.973Z,9.00
2024-04-17T22:52:57.701Z,8.90
2024-04-17T22:55:25.200Z,8.90
2024-04-17T22:57:52.710Z,8.80
2024-04-17T23:00:21.913Z,8.80
2024-04-17T23:02:49.474Z,8.80
2024-04-17T23:05:17.082Z,8.70
2024-04-17T23:07:44.612Z,8.70
2024-04-17T23:10:12.144Z,8.70
2024-04-17T23:12:39.701Z,8.60
2024-04-17T23:15:07.964Z,8.60
2024-04-17T23:17:35.599Z,8.60
2024-04-17T23:20:03.149Z,8.50
2024-04-17T23:22:30.932Z,8.50
2024-04-17T23:24:58.495Z,8.50
2024-04-17T23:27:26.284Z,8.50
2024-04-17T23:29:53.941Z,8.40
2024-04-17T23:32:21.539Z,8.40
2024-04-17T23:34:49.063Z,8.40
2024-04-17T23:37:16.585Z,8.40
2024-04-17T23:39:45.651Z,8.40
2024-04-17T23:42:13.713Z,8.40
2024-04-17T23:44:41.280Z,8.40
2024-04-17T23:47:08.862Z,8.30
2024-04-17T23:49:36.851Z,8.30
2024-04-17T23:52:04.801Z,8.30
2024-04-17T23:54:32.584Z,8.30
2024-04-17T23:57:00.159Z,8.30
2024-04-17T23:59:27.697Z,8.30
